Terminal Aerodrome Forecast
Issued by NWS Central Illinois

Home | Current Version | Previous Version | Text Only | Print | Product List | Glossary On
Versions: 1 2 3 4 5 6 7 8 9 10 11 12 13 14 15 16 17 18 19
000
FTUS43 KILX 251700
TAFPIA
TAF
KPIA 251728Z 2518/2618 04015G23KT 1 1/2SM -SN BR BKN006 OVC012
     FM252300 02013G23KT P6SM OVC015
     FM260400 02007KT P6SM BKN015
     FM260800 35004KT P6SM SCT015
     FM261300 21007KT P6SM SCT015 BKN050=

USA.gov is the U.S. government's official web portal to all federal, state and local government web resources and services.